Time;durP1;ratioP1;P1;durP2;ratioP2;P2;SDS_P1;SDS_P2;PMS_P1;PMS_P2;Temp;Humidity;BMP_temperature;BMP_pressure;BME280_temperature;BME280_humidity;BME280_pressure;Samples;Min_cycle;Max_cycle;Signal;HPM_P1;HPM_P2
2022/05/13 00:00:05;;;;;;;;;3.00;1.75;;;;;;;;5078022;27;45438;-81
2022/05/13 00:02:30;;;;;;;;;2.00;1.00;;;;;;;;5080281;27;45318;-81
2022/05/13 00:04:56;;;;;;;;;5.67;3.00;;;;;;;;5080618;27;45325;-80
2022/05/13 00:07:21;;;;;;;;;1.67;1.67;;;;;;;;5076786;27;46224;-84
2022/05/13 00:10:05;;;;;;;;;1.75;1.00;;;;;;;;5059858;28;45441;-80
2022/05/13 00:12:32;;;;;;;;;2.00;0.00;;;;;;;;5059725;28;45494;-80
2022/05/13 00:14:58;;;;;;;;;0.67;0.67;;;;;;;;5059869;28;45600;-80
2022/05/13 00:17:24;;;;;;;;;2.00;1.00;;;;;;;;5059181;28;46519;-80
2022/05/13 00:19:49;;;;;;;;;4.50;1.75;;;;;;;;5059087;28;45674;-80
2022/05/13 00:22:15;;;;;;;;;3.00;1.00;;;;;;;;5078415;28;45480;-81
2022/05/13 00:24:41;;;;;;;;;2.67;1.00;;;;;;;;5080304;27;45473;-80
2022/05/13 00:27:06;;;;;;;;;0.50;0.50;;;;;;;;5079244;27;47443;-81
2022/05/13 00:29:31;;;;;;;;;2.75;0.00;;;;;;;;5074956;27;45447;-79
2022/05/13 00:31:57;;;;;;;;;5.67;1.00;;;;;;;;5059693;28;45759;-80
2022/05/13 00:34:22;;;;;;;;;1.00;1.00;;;;;;;;5059869;28;45207;-82
2022/05/13 00:36:47;;;;;;;;;4.00;1.00;;;;;;;;5059578;28;45524;-81
2022/05/13 00:39:13;;;;;;;;;3.67;2.00;;;;;;;;5075013;28;45466;-81
2022/05/13 00:41:38;;;;;;;;;3.00;2.00;;;;;;;;5079555;27;45454;-81
2022/05/13 00:44:04;;;;;;;;;6.00;2.00;;;;;;;;5078125;27;45465;-80
2022/05/13 00:46:29;;;;;;;;;4.00;2.00;;;;;;;;5079229;27;45378;-82
2022/05/13 00:48:56;;;;;;;;;3.75;3.00;;;;;;;;5079233;27;45392;-82
2022/05/13 00:51:51;;;;;;;;;4.25;3.00;;;;;;;;5076630;27;45385;-82
2022/05/13 00:54:17;;;;;;;;;2.00;2.00;;;;;;;;4997072;28;45540;-84
2022/05/13 00:56:44;;;;;;;;;2.67;2.67;;;;;;;;4998824;28;46007;-83
2022/05/13 00:59:12;;;;;;;;;4.25;3.00;;;;;;;;5016396;28;45278;-78
2022/05/13 01:01:37;;;;;;;;;2.67;2.67;;;;;;;;5016406;28;45260;-84
2022/05/13 01:04:05;;;;;;;;;4.00;2.33;;;;;;;;5016671;28;45449;-79
2022/05/13 01:06:31;;;;;;;;;7.00;3.00;;;;;;;;5016303;28;48471;-83
2022/05/13 01:08:56;;;;;;;;;4.00;2.00;;;;;;;;4996428;28;45370;-82
2022/05/13 01:11:24;;;;;;;;;2.00;2.00;;;;;;;;5006886;28;45456;-85
2022/05/13 01:13:52;;;;;;;;;10.00;4.67;;;;;;;;5016481;28;45514;-79
2022/05/13 01:16:17;;;;;;;;;6.33;2.33;;;;;;;;5016569;28;46637;-84
2022/05/13 01:18:43;;;;;;;;;6.00;5.00;;;;;;;;5016479;28;45542;-81
2022/05/13 01:21:10;;;;;;;;;1.33;1.33;;;;;;;;5016399;28;45468;-79
2022/05/13 01:23:36;;;;;;;;;4.00;2.67;;;;;;;;5016369;28;45453;-82
2022/05/13 01:26:02;;;;;;;;;3.67;2.00;;;;;;;;5015977;28;47229;-78
2022/05/13 01:28:29;;;;;;;;;3.33;2.00;;;;;;;;5015186;28;45468;-79
2022/05/13 01:30:55;;;;;;;;;3.00;2.00;;;;;;;;5046134;28;45814;-83
2022/05/13 01:33:21;;;;;;;;;2.00;1.00;;;;;;;;5067085;28;45268;-79
2022/05/13 01:35:47;;;;;;;;;3.33;2.33;;;;;;;;5058096;28;46339;-78
2022/05/13 01:38:13;;;;;;;;;4.33;3.00;;;;;;;;5070617;28;45394;-80
2022/05/13 01:40:39;;;;;;;;;4.33;3.00;;;;;;;;5078701;27;45383;-82
2022/05/13 01:43:05;;;;;;;;;2.67;2.67;;;;;;;;5078431;27;45439;-82
2022/05/13 01:45:30;;;;;;;;;4.00;2.00;;;;;;;;5077925;27;46555;-85
2022/05/13 01:47:55;;;;;;;;;1.67;1.67;;;;;;;;5078479;27;45377;-78
2022/05/13 01:50:22;;;;;;;;;6.00;1.33;;;;;;;;5078560;27;45381;-78
2022/05/13 01:52:48;;;;;;;;;2.00;2.00;;;;;;;;5069214;27;45534;-78
2022/05/13 01:55:13;;;;;;;;;2.00;2.00;;;;;;;;5057774;28;45315;-79
2022/05/13 01:57:38;;;;;;;;;2.00;2.00;;;;;;;;5057787;28;45409;-80
2022/05/13 02:00:04;;;;;;;;;2.00;2.00;;;;;;;;5057901;28;45351;-82
2022/05/13 02:02:29;;;;;;;;;2.00;1.00;;;;;;;;5058107;28;45572;-81
2022/05/13 02:04:54;;;;;;;;;2.00;1.33;;;;;;;;5057625;28;45389;-80
2022/05/13 02:07:19;;;;;;;;;5.00;2.00;;;;;;;;5057378;28;45352;-81
2022/05/13 02:09:45;;;;;;;;;2.00;2.00;;;;;;;;5057649;28;45469;-80
2022/05/13 02:12:10;;;;;;;;;1.67;1.67;;;;;;;;5063906;28;45414;-80
2022/05/13 02:14:35;;;;;;;;;6.00;2.33;;;;;;;;5094441;27;47387;-79
2022/05/13 02:17:00;;;;;;;;;1.67;1.67;;;;;;;;5071710;27;45387;-81
2022/05/13 02:19:26;;;;;;;;;4.33;2.33;;;;;;;;5057728;28;45522;-81
2022/05/13 02:21:51;;;;;;;;;4.67;3.00;;;;;;;;5057650;28;45320;-77
2022/05/13 02:24:16;;;;;;;;;2.00;2.00;;;;;;;;5057514;28;45374;-81
2022/05/13 02:26:42;;;;;;;;;2.00;1.00;;;;;;;;5068265;27;45299;-78
2022/05/13 02:29:07;;;;;;;;;3.67;2.00;;;;;;;;5077856;27;45356;-79
2022/05/13 02:31:32;;;;;;;;;5.33;3.33;;;;;;;;5077990;27;45475;-79
2022/05/13 02:33:58;;;;;;;;;6.00;2.00;;;;;;;;5077447;27;45252;-80
2022/05/13 02:36:24;;;;;;;;;3.00;2.00;;;;;;;;5061528;27;45498;-79
2022/05/13 02:38:49;;;;;;;;;4.00;2.00;;;;;;;;5059941;28;45832;-79
2022/05/13 02:41:14;;;;;;;;;3.00;3.00;;;;;;;;5068679;27;45379;-78
2022/05/13 02:43:47;;;;;;;;;2.33;2.33;;;;;;;;5075213;28;46991;-81
2022/05/13 02:46:14;;;;;;;;;6.75;2.50;;;;;;;;5077400;27;45363;-79
2022/05/13 02:48:39;;;;;;;;;3.00;2.00;;;;;;;;5077912;27;45319;-82
2022/05/13 02:51:05;;;;;;;;;7.00;2.67;;;;;;;;5076653;27;45615;-81
2022/05/13 02:53:30;;;;;;;;;3.00;3.00;;;;;;;;5077449;27;47080;-80
2022/05/13 02:55:55;;;;;;;;;5.00;3.00;;;;;;;;5077333;28;45431;-80
2022/05/13 02:58:21;;;;;;;;;2.00;2.00;;;;;;;;5077790;28;45366;-82
2022/05/13 03:00:46;;;;;;;;;3.75;1.75;;;;;;;;5061962;27;45427;-81
2022/05/13 03:03:12;;;;;;;;;4.33;2.00;;;;;;;;5057075;28;47347;-80
2022/05/13 03:05:38;;;;;;;;;5.33;2.00;;;;;;;;5056913;28;45776;-79
2022/05/13 03:08:03;;;;;;;;;3.67;2.00;;;;;;;;5056905;28;45242;-77
2022/05/13 03:10:30;;;;;;;;;3.67;2.00;;;;;;;;5057118;28;45434;-78
2022/05/13 03:12:55;;;;;;;;;4.33;3.00;;;;;;;;5056720;28;46593;-79
2022/05/13 03:15:21;;;;;;;;;3.67;2.67;;;;;;;;5056504;28;45530;-77
2022/05/13 03:17:46;;;;;;;;;2.00;1.00;;;;;;;;5057129;28;45320;-76
2022/05/13 03:20:13;;;;;;;;;3.33;3.33;;;;;;;;5056891;28;45616;-81
2022/05/13 03:22:38;;;;;;;;;3.33;2.00;;;;;;;;5056801;28;47042;-77
2022/05/13 03:25:03;;;;;;;;;6.67;3.00;;;;;;;;5056841;28;45336;-76
2022/05/13 03:27:29;;;;;;;;;2.67;2.00;;;;;;;;5056680;28;45432;-76
2022/05/13 03:29:54;;;;;;;;;6.00;2.00;;;;;;;;5056441;28;45528;-78
2022/05/13 03:32:19;;;;;;;;;4.00;2.00;;;;;;;;5056626;28;46174;-76
2022/05/13 03:34:44;;;;;;;;;5.67;4.33;;;;;;;;5057676;28;45380;-78
2022/05/13 03:37:10;;;;;;;;;3.67;2.00;;;;;;;;5060540;28;45534;-79
2022/05/13 03:39:35;;;;;;;;;3.00;3.00;;;;;;;;5060445;28;45407;-78
2022/05/13 03:42:00;;;;;;;;;4.33;3.00;;;;;;;;5059970;28;46566;-77
2022/05/13 03:44:25;;;;;;;;;4.33;2.33;;;;;;;;5059811;28;45396;-76
2022/05/13 03:46:50;;;;;;;;;5.00;3.33;;;;;;;;5060066;28;45394;-81
2022/05/13 03:49:16;;;;;;;;;4.67;2.67;;;;;;;;5060383;28;45308;-78
2022/05/13 03:51:41;;;;;;;;;6.00;3.00;;;;;;;;5063989;28;45469;-76
2022/05/13 03:54:06;;;;;;;;;3.00;3.00;;;;;;;;5080101;27;45290;-81
2022/05/13 03:56:32;;;;;;;;;7.00;3.00;;;;;;;;5080240;27;45425;-77
2022/05/13 03:58:57;;;;;;;;;5.33;3.00;;;;;;;;5080443;27;45647;-77
2022/05/13 04:01:22;;;;;;;;;5.33;3.00;;;;;;;;5079692;27;46625;-77
2022/05/13 04:03:49;;;;;;;;;5.00;2.67;;;;;;;;5079774;27;45201;-78
2022/05/13 04:08:59;;;;;;;;;5.00;3.00;;;;;;;;5080270;28;45316;-79
2022/05/13 04:11:36;;;;;;;;;2.00;0.25;;;;;;;;5079407;27;47141;-76
2022/05/13 04:16:45;;;;;;;;;4.33;3.00;;;;;;;;5079879;28;45450;-77
2022/05/13 04:19:11;;;;;;;;;6.00;4.00;;;;;;;;5078344;27;45438;-76
2022/05/13 04:21:37;;;;;;;;;9.33;5.00;;;;;;;;5079250;28;45605;-75
2022/05/13 04:24:04;;;;;;;;;3.67;3.00;;;;;;;;5079432;27;45397;-79
2022/05/13 04:26:30;;;;;;;;;4.00;3.00;;;;;;;;5079395;27;45374;-78
2022/05/13 04:28:56;;;;;;;;;5.33;3.67;;;;;;;;5079844;27;45445;-80
2022/05/13 04:31:26;;;;;;;;;5.00;2.67;;;;;;;;5078878;27;46374;-78
2022/05/13 04:33:52;;;;;;;;;3.67;2.00;;;;;;;;5079592;27;45351;-79
2022/05/13 04:36:18;;;;;;;;;3.67;3.67;;;;;;;;5079434;28;45449;-78
2022/05/13 04:38:45;;;;;;;;;3.00;3.00;;;;;;;;5079985;27;45505;-78
2022/05/13 04:43:54;;;;;;;;;5.67;4.00;;;;;;;;5078940;28;45319;-79
2022/05/13 04:46:20;;;;;;;;;3.67;3.67;;;;;;;;5078928;27;45375;-77
2022/05/13 04:48:47;;;;;;;;;4.00;4.00;;;;;;;;5079505;27;45299;-77
2022/05/13 04:51:12;;;;;;;;;5.67;3.00;;;;;;;;5078844;27;46452;-77
2022/05/13 04:53:38;;;;;;;;;6.33;4.67;;;;;;;;5079287;27;45418;-79
2022/05/13 04:56:05;;;;;;;;;6.67;3.67;;;;;;;;5078916;27;45241;-75
2022/05/13 04:58:30;;;;;;;;;6.00;3.00;;;;;;;;5079767;27;45377;-78
2022/05/13 05:00:56;;;;;;;;;3.67;2.67;;;;;;;;5061935;27;46593;-77
2022/05/13 05:03:23;;;;;;;;;4.00;4.00;;;;;;;;5058396;28;45302;-78
2022/05/13 05:05:48;;;;;;;;;4.33;3.00;;;;;;;;5058836;28;45158;-81
2022/05/13 05:08:15;;;;;;;;;6.00;3.67;;;;;;;;5059016;28;45392;-78
2022/05/13 05:10:41;;;;;;;;;5.33;4.00;;;;;;;;5058835;28;46713;-75
2022/05/13 05:13:09;;;;;;;;;3.00;1.00;;;;;;;;5058410;28;45376;-81
2022/05/13 05:15:36;;;;;;;;;4.00;4.00;;;;;;;;5058382;28;45451;-77
2022/05/13 05:18:02;;;;;;;;;3.67;3.67;;;;;;;;5065373;28;45280;-79
2022/05/13 05:20:27;;;;;;;;;10.33;10.33;;;;;;;;5078535;27;46255;-77
2022/05/13 05:22:52;;;;;;;;;6.67;5.00;;;;;;;;5078012;27;45439;-77
2022/05/13 05:25:19;;;;;;;;;3.00;3.00;;;;;;;;5078944;27;45382;-78
2022/05/13 05:27:44;;;;;;;;;6.00;4.33;;;;;;;;5078877;27;45442;-77
2022/05/13 05:30:10;;;;;;;;;5.00;3.67;;;;;;;;5070418;27;46331;-78
2022/05/13 05:32:36;;;;;;;;;6.67;4.00;;;;;;;;5058192;28;45395;-78
2022/05/13 05:35:03;;;;;;;;;5.67;4.33;;;;;;;;5062578;28;45566;-77
2022/05/13 05:37:28;;;;;;;;;7.00;4.00;;;;;;;;5078793;27;45398;-78
2022/05/13 05:39:53;;;;;;;;;6.33;6.33;;;;;;;;5077732;27;46624;-77
2022/05/13 05:42:19;;;;;;;;;4.33;4.33;;;;;;;;5078360;27;45374;-77
2022/05/13 05:44:44;;;;;;;;;4.33;4.33;;;;;;;;5078591;27;45447;-77
2022/05/13 05:47:09;;;;;;;;;5.00;3.00;;;;;;;;5066636;27;45882;-77
2022/05/13 05:49:34;;;;;;;;;5.00;5.00;;;;;;;;5055270;28;46655;-78
2022/05/13 05:52:00;;;;;;;;;7.67;5.00;;;;;;;;5057696;28;45394;-76
2022/05/13 05:57:15;;;;;;;;;8.67;4.33;;;;;;;;5058133;28;45503;-79
2022/05/13 05:59:44;;;;;;;;;11.00;5.33;;;;;;;;5058706;28;46558;-81
2022/05/13 06:02:10;;;;;;;;;9.00;6.00;;;;;;;;5077796;27;45415;-79
2022/05/13 06:04:36;;;;;;;;;5.00;5.00;;;;;;;;5078352;27;45434;-79
2022/05/13 06:07:02;;;;;;;;;4.67;4.67;;;;;;;;5078251;27;45772;-81
2022/05/13 06:09:27;;;;;;;;;5.00;4.00;;;;;;;;5058205;27;47692;-78
2022/05/13 06:11:53;;;;;;;;;4.00;4.00;;;;;;;;5059914;28;45272;-80
2022/05/13 06:14:18;;;;;;;;;4.00;3.00;;;;;;;;5078076;27;45346;-77
2022/05/13 06:16:43;;;;;;;;;10.67;8.33;;;;;;;;5078162;27;45469;-79
2022/05/13 06:19:08;;;;;;;;;8.00;6.67;;;;;;;;5076386;27;45661;-80
2022/05/13 06:21:35;;;;;;;;;4.00;3.67;;;;;;;;5077723;27;45445;-80
2022/05/13 06:24:00;;;;;;;;;5.00;5.00;;;;;;;;5078226;27;45462;-81
2022/05/13 06:26:25;;;;;;;;;8.33;6.67;;;;;;;;5078217;28;45289;-80
2022/05/13 06:28:51;;;;;;;;;5.67;3.67;;;;;;;;5077463;27;47619;-83
2022/05/13 06:31:18;;;;;;;;;12.67;8.00;;;;;;;;5077138;27;45272;-78
2022/05/13 06:33:43;;;;;;;;;6.33;4.00;;;;;;;;5077518;27;45296;-82
2022/05/13 06:36:08;;;;;;;;;8.00;6.00;;;;;;;;5077833;27;45429;-81
2022/05/13 06:38:34;;;;;;;;;7.33;6.00;;;;;;;;5077650;27;45514;-81
2022/05/13 06:40:59;;;;;;;;;7.33;5.67;;;;;;;;5077392;27;45236;-80
2022/05/13 06:43:24;;;;;;;;;11.00;5.00;;;;;;;;5077735;27;45257;-78
2022/05/13 06:45:50;;;;;;;;;6.67;4.00;;;;;;;;5077496;27;45406;-81
2022/05/13 06:48:15;;;;;;;;;6.00;5.00;;;;;;;;5060955;27;46200;-79
2022/05/13 06:50:44;;;;;;;;;5.67;4.33;;;;;;;;5057510;28;45825;-81
2022/05/13 06:53:10;;;;;;;;;11.00;5.00;;;;;;;;5069263;28;45368;-77
2022/05/13 06:55:35;;;;;;;;;8.33;2.33;;;;;;;;5077000;27;45429;-77
2022/05/13 06:58:01;;;;;;;;;2.00;2.00;;;;;;;;5077088;28;45524;-77
2022/05/13 07:00:26;;;;;;;;;5.00;3.00;;;;;;;;5057199;28;45347;-78
2022/05/13 07:02:51;;;;;;;;;6.67;3.67;;;;;;;;5057085;28;45387;-79
2022/05/13 07:05:17;;;;;;;;;4.67;3.00;;;;;;;;5057825;28;45332;-77
2022/05/13 07:07:42;;;;;;;;;8.67;4.00;;;;;;;;5056765;28;45526;-77
2022/05/13 07:10:08;;;;;;;;;4.67;3.00;;;;;;;;5062710;28;45406;-75
2022/05/13 07:12:33;;;;;;;;;3.00;3.00;;;;;;;;5078311;27;45349;-78
2022/05/13 07:14:58;;;;;;;;;4.00;2.67;;;;;;;;5080633;27;45418;-77
2022/05/13 07:17:24;;;;;;;;;6.00;3.33;;;;;;;;5079914;27;45521;-78
2022/05/13 07:19:49;;;;;;;;;4.33;2.00;;;;;;;;5080842;27;45368;-79
2022/05/13 07:22:14;;;;;;;;;4.67;4.00;;;;;;;;5081038;27;45389;-78
2022/05/13 07:24:39;;;;;;;;;4.67;3.00;;;;;;;;5080507;27;45208;-78
2022/05/13 07:27:05;;;;;;;;;1.67;1.67;;;;;;;;5080726;27;45446;-84
2022/05/13 07:29:31;;;;;;;;;5.00;5.00;;;;;;;;5077953;27;45423;-75
2022/05/13 07:31:56;;;;;;;;;3.00;3.00;;;;;;;;5079965;27;45253;-79
2022/05/13 07:34:22;;;;;;;;;4.00;2.67;;;;;;;;5080274;28;45386;-80
2022/05/13 07:36:48;;;;;;;;;4.33;3.00;;;;;;;;5079437;27;47451;-78
2022/05/13 07:41:58;;;;;;;;;1.00;1.00;;;;;;;;5080089;28;45572;-79
2022/05/13 07:44:24;;;;;;;;;3.33;2.00;;;;;;;;5080287;27;45430;-80
2022/05/13 07:46:51;;;;;;;;;3.00;3.00;;;;;;;;5079996;27;46419;-78
2022/05/13 07:49:16;;;;;;;;;1.67;1.67;;;;;;;;5079608;27;45449;-78
2022/05/13 07:51:42;;;;;;;;;4.00;2.00;;;;;;;;5079419;27;45368;-78
2022/05/13 07:54:07;;;;;;;;;4.00;1.00;;;;;;;;5080267;27;45328;-79
2022/05/13 07:56:32;;;;;;;;;2.67;2.00;;;;;;;;5079182;27;46120;-78
2022/05/13 07:59:00;;;;;;;;;2.00;2.00;;;;;;;;5079824;27;45385;-79
2022/05/13 08:01:26;;;;;;;;;2.33;2.33;;;;;;;;5080171;27;45457;-77
2022/05/13 08:03:51;;;;;;;;;5.00;1.67;;;;;;;;5079990;28;45422;-80
2022/05/13 08:06:17;;;;;;;;;3.00;1.00;;;;;;;;5079231;28;46603;-82
2022/05/13 08:08:43;;;;;;;;;1.00;1.00;;;;;;;;5061518;27;45387;-81
2022/05/13 08:11:10;;;;;;;;;4.33;3.00;;;;;;;;5059644;28;45296;-76
2022/05/13 08:13:36;;;;;;;;;3.33;1.00;;;;;;;;5073918;27;45552;-81
2022/05/13 08:16:04;;;;;;;;;2.33;1.00;;;;;;;;5065832;27;45469;-81
2022/05/13 08:18:29;;;;;;;;;4.33;3.00;;;;;;;;5080812;27;45459;-80
2022/05/13 08:20:54;;;;;;;;;3.67;2.00;;;;;;;;5098338;27;45498;-81
2022/05/13 08:23:20;;;;;;;;;2.00;1.00;;;;;;;;5084715;27;45354;-80
2022/05/13 08:25:46;;;;;;;;;9.00;7.00;;;;;;;;5082067;27;47299;-83
2022/05/13 08:28:12;;;;;;;;;3.67;2.33;;;;;;;;5080265;27;46010;-80
2022/05/13 08:30:38;;;;;;;;;5.00;3.00;;;;;;;;5079407;27;45324;-79
2022/05/13 08:33:08;;;;;;;;;0.00;0.00;;;;;;;;5083766;27;45302;-76
2022/05/13 08:35:33;;;;;;;;;2.67;1.00;;;;;;;;5084037;27;46438;-76
2022/05/13 08:37:59;;;;;;;;;1.00;1.00;;;;;;;;5067622;28;45447;-78
2022/05/13 08:40:24;;;;;;;;;1.33;0.67;;;;;;;;5061677;27;45492;-76
2022/05/13 08:42:49;;;;;;;;;1.00;1.00;;;;;;;;5095275;27;45398;-79
2022/05/13 08:45:17;;;;;;;;;1.00;1.00;;;;;;;;5099540;27;46127;-77
2022/05/13 08:47:56;;;;;;;;;4.33;0.67;;;;;;;;5094388;27;45441;-76
2022/05/13 08:50:24;;;;;;;;;2.00;0.67;;;;;;;;5081738;27;45473;-79
2022/05/13 08:53:12;;;;;;;;;1.00;1.00;;;;;;;;5099605;27;45437;-78
2022/05/13 08:55:40;;;;;;;;;1.33;0.00;;;;;;;;5073776;28;46723;-79
2022/05/13 08:58:08;;;;;;;;;2.67;1.00;;;;;;;;5058012;28;45493;-84
2022/05/13 09:00:38;;;;;;;;;0.00;0.00;;;;;;;;5056315;28;45405;-75
2022/05/13 09:03:22;;;;;;;;;1.00;1.00;;;;;;;;5056558;28;45356;-74
2022/05/13 09:05:51;;;;;;;;;4.00;1.00;;;;;;;;5058171;28;46220;-75
2022/05/13 09:08:17;;;;;;;;;1.00;1.00;;;;;;;;5055919;28;45411;-73
2022/05/13 09:10:51;;;;;;;;;2.67;1.00;;;;;;;;5056311;28;45440;-80
2022/05/13 09:13:26;;;;;;;;;2.00;0.67;;;;;;;;5057091;28;45994;-74
2022/05/13 09:15:53;;;;;;;;;3.00;1.67;;;;;;;;5071970;28;47576;-77
2022/05/13 09:18:26;;;;;;;;;1.00;1.00;;;;;;;;5038511;28;45479;-74
2022/05/13 09:20:59;;;;;;;;;1.00;1.00;;;;;;;;5076063;28;45456;-79
2022/05/13 09:23:25;;;;;;;;;1.67;1.00;;;;;;;;5074010;28;45533;-73
2022/05/13 09:26:13;;;;;;;;;2.00;0.67;;;;;;;;5059117;28;46444;-75
2022/05/13 09:28:58;;;;;;;;;0.50;0.50;;;;;;;;5055220;28;45540;-77
2022/05/13 09:31:26;;;;;;;;;1.00;1.00;;;;;;;;5059503;28;45527;-78
2022/05/13 09:33:51;;;;;;;;;3.00;0.00;;;;;;;;5057449;28;45424;-75
2022/05/13 09:36:22;;;;;;;;;3.33;1.00;;;;;;;;5072799;27;45441;-75
2022/05/13 09:38:48;;;;;;;;;3.33;1.00;;;;;;;;5091526;27;45447;-79
2022/05/13 09:41:22;;;;;;;;;2.00;1.00;;;;;;;;5098611;27;45437;-76
2022/05/13 09:43:52;;;;;;;;;3.00;1.00;;;;;;;;5098758;27;45448;-75
2022/05/13 09:46:31;;;;;;;;;1.00;1.00;;;;;;;;5098576;27;46353;-78
2022/05/13 09:49:01;;;;;;;;;0.67;0.67;;;;;;;;5098196;27;45420;-78
2022/05/13 09:51:37;;;;;;;;;2.67;1.00;;;;;;;;5098475;27;45339;-78
2022/05/13 09:54:05;;;;;;;;;17.00;15.33;;;;;;;;5091915;27;45509;-76
2022/05/13 09:56:39;;;;;;;;;1.00;1.00;;;;;;;;5077850;27;45999;-81
2022/05/13 09:59:05;;;;;;;;;1.00;1.00;;;;;;;;5080635;27;45489;-71
2022/05/13 10:01:30;;;;;;;;;0.00;0.00;;;;;;;;5078330;27;45533;-71
2022/05/13 10:04:08;;;;;;;;;2.00;1.00;;;;;;;;5078133;27;45414;-72
2022/05/13 10:06:35;;;;;;;;;5.00;5.00;;;;;;;;5077696;27;45460;-72
2022/05/13 10:14:32;;;;;;;;;1.00;1.00;;;;;;;;5083956;27;45304;-76
2022/05/13 10:17:13;;;;;;;;;1.00;1.00;;;;;;;;5077462;27;46627;-76
2022/05/13 10:19:44;;;;;;;;;0.33;0.33;;;;;;;;5077370;27;45325;-78
2022/05/13 10:22:28;;;;;;;;;2.33;1.00;;;;;;;;5087752;27;45383;-73
2022/05/13 10:25:00;;;;;;;;;2.33;1.67;;;;;;;;5077711;27;45358;-79
2022/05/13 10:27:25;;;;;;;;;1.00;1.00;;;;;;;;5077092;27;46470;-81
2022/05/13 10:29:54;;;;;;;;;1.00;1.00;;;;;;;;5070408;27;45496;-81
2022/05/13 10:32:24;;;;;;;;;4.00;1.00;;;;;;;;5066602;28;45452;-80
2022/05/13 10:34:53;;;;;;;;;1.00;0.67;;;;;;;;5076846;27;45442;-83
2022/05/13 10:37:29;;;;;;;;;0.00;0.00;;;;;;;;5074343;27;46785;-82
2022/05/13 10:40:16;;;;;;;;;2.00;1.00;;;;;;;;5076926;27;45493;-81
2022/05/13 10:42:42;;;;;;;;;1.00;0.00;;;;;;;;5076790;28;45489;-82
2022/05/13 10:45:10;;;;;;;;;1.00;1.00;;;;;;;;5077573;28;45308;-78
2022/05/13 10:47:41;;;;;;;;;0.33;0.33;;;;;;;;5077662;27;45334;-79
2022/05/13 10:50:14;;;;;;;;;0.33;0.33;;;;;;;;5083136;27;45460;-79
2022/05/13 10:52:45;;;;;;;;;0.00;0.00;;;;;;;;5096348;27;45300;-78
2022/05/13 10:55:29;;;;;;;;;0.33;0.33;;;;;;;;5077271;27;45356;-81
2022/05/13 10:57:57;;;;;;;;;7.33;7.33;;;;;;;;5076598;27;46273;-79
2022/05/13 11:00:31;;;;;;;;;0.00;0.00;;;;;;;;5076685;28;45374;-82
2022/05/13 11:03:15;;;;;;;;;1.00;1.00;;;;;;;;5077526;27;45436;-81
2022/05/13 11:05:49;;;;;;;;;1.33;1.00;;;;;;;;5075357;27;46364;-77
2022/05/13 11:08:50;;;;;;;;;1.00;1.00;;;;;;;;5077224;27;45640;-79
2022/05/13 11:11:33;;;;;;;;;3.33;0.00;;;;;;;;5034184;28;45474;-75
2022/05/13 11:14:16;;;;;;;;;11.00;8.00;;;;;;;;5034749;28;45362;-80
2022/05/13 11:16:50;;;;;;;;;1.00;1.00;;;;;;;;5021779;28;45561;-77
2022/05/13 11:19:31;;;;;;;;;2.00;1.00;;;;;;;;5031530;28;46386;-77
2022/05/13 11:22:05;;;;;;;;;4.00;1.00;;;;;;;;5031075;28;45469;-78
2022/05/13 11:27:37;;;;;;;;;2.67;1.00;;;;;;;;4954553;28;45501;-70
2022/05/13 11:30:02;;;;;;;;;2.67;1.33;;;;;;;;4954750;28;46321;-79
2022/05/13 11:32:46;;;;;;;;;1.33;1.00;;;;;;;;4955432;28;45505;-74
2022/05/13 11:35:17;;;;;;;;;0.00;0.00;;;;;;;;4958425;28;45733;-78
2022/05/13 11:37:44;;;;;;;;;2.00;1.00;;;;;;;;4969542;28;45356;-76
2022/05/13 11:40:15;;;;;;;;;0.00;0.00;;;;;;;;4974941;28;46257;-74
2022/05/13 11:45:35;;;;;;;;;1.00;1.00;;;;;;;;4968228;28;45314;-76
2022/05/13 11:48:19;;;;;;;;;1.00;1.00;;;;;;;;4994577;28;45445;-80
2022/05/13 11:50:44;;;;;;;;;2.00;0.00;;;;;;;;4995842;28;46010;-79
2022/05/13 11:53:10;;;;;;;;;2.33;0.00;;;;;;;;4995737;28;45378;-74
2022/05/13 11:55:35;;;;;;;;;2.00;0.67;;;;;;;;5005917;28;45490;-77
2022/05/13 11:58:00;;;;;;;;;1.00;1.00;;;;;;;;5000334;28;45506;-77
2022/05/13 12:00:33;;;;;;;;;2.00;1.00;;;;;;;;4998005;28;45378;-76
2022/05/13 12:03:07;;;;;;;;;1.00;1.00;;;;;;;;4999872;28;45401;-77
2022/05/13 12:05:53;;;;;;;;;0.33;0.33;;;;;;;;5085958;27;45549;-77
2022/05/13 12:08:31;;;;;;;;;0.33;0.33;;;;;;;;5079236;27;46477;-78
2022/05/13 12:11:02;;;;;;;;;1.00;1.00;;;;;;;;5077406;28;45311;-76
2022/05/13 12:13:46;;;;;;;;;2.00;0.67;;;;;;;;5075714;27;45479;-73
2022/05/13 12:16:32;;;;;;;;;3.67;1.00;;;;;;;;5077896;27;45699;-79
2022/05/13 12:19:13;;;;;;;;;2.00;0.00;;;;;;;;5079110;27;45435;-75
2022/05/13 12:21:54;;;;;;;;;0.00;0.00;;;;;;;;5077248;28;46487;-72
2022/05/13 12:24:21;;;;;;;;;2.00;2.00;;;;;;;;5078357;27;45360;-74
2022/05/13 12:26:52;;;;;;;;;2.00;2.00;;;;;;;;5079537;27;45409;-71
2022/05/13 12:29:36;;;;;;;;;0.67;0.67;;;;;;;;5080166;27;45395;-71
2022/05/13 12:32:02;;;;;;;;;1.00;1.00;;;;;;;;5084407;27;45599;-75
2022/05/13 12:37:35;;;;;;;;;6.00;1.00;;;;;;;;5078612;28;45425;-74
2022/05/13 12:40:00;;;;;;;;;1.67;1.00;;;;;;;;5079315;27;45603;-78
2022/05/13 12:42:51;;;;;;;;;0.33;0.33;;;;;;;;5078579;27;47059;-74
2022/05/13 12:45:22;;;;;;;;;1.00;0.33;;;;;;;;5073634;27;45457;-74
2022/05/13 12:48:09;;;;;;;;;4.00;4.00;;;;;;;;5077966;27;45430;-78
2022/05/13 12:50:45;;;;;;;;;4.00;1.33;;;;;;;;5079192;27;45276;-80
2022/05/13 12:53:28;;;;;;;;;0.67;0.67;;;;;;;;5075896;27;45463;-74
2022/05/13 12:55:56;;;;;;;;;1.67;0.33;;;;;;;;5076528;27;45485;-80
2022/05/13 12:58:23;;;;;;;;;0.00;0.00;;;;;;;;5076645;27;45576;-84
2022/05/13 13:00:49;;;;;;;;;3.00;1.33;;;;;;;;5076690;27;45393;-77
2022/05/13 13:03:14;;;;;;;;;1.67;0.33;;;;;;;;5076278;27;45426;-81
2022/05/13 13:05:42;;;;;;;;;3.00;2.00;;;;;;;;5076149;27;45534;-73
2022/05/13 13:08:10;;;;;;;;;3.33;1.00;;;;;;;;5074141;28;45465;-75
2022/05/13 13:10:35;;;;;;;;;4.00;1.33;;;;;;;;5076477;28;45703;-80
2022/05/13 13:13:00;;;;;;;;;1.00;1.00;;;;;;;;5076336;28;46450;-78
2022/05/13 13:15:29;;;;;;;;;2.00;0.33;;;;;;;;5075842;28;45596;-73
2022/05/13 13:17:54;;;;;;;;;2.00;1.00;;;;;;;;5076316;27;45464;-76
2022/05/13 13:20:20;;;;;;;;;0.33;0.33;;;;;;;;5076744;27;45411;-75
2022/05/13 13:22:51;;;;;;;;;1.33;0.00;;;;;;;;5076334;27;45539;-76
2022/05/13 13:25:16;;;;;;;;;3.00;0.00;;;;;;;;5077207;27;45450;-75
2022/05/13 13:27:41;;;;;;;;;1.00;1.00;;;;;;;;5077185;27;45358;-77
2022/05/13 13:30:13;;;;;;;;;2.33;1.00;;;;;;;;5077478;27;45355;-73
2022/05/13 13:32:44;;;;;;;;;3.00;2.00;;;;;;;;5077288;27;46491;-73
2022/05/13 13:35:10;;;;;;;;;1.67;0.00;;;;;;;;5073527;28;45394;-77
2022/05/13 13:37:37;;;;;;;;;2.00;2.00;;;;;;;;5078422;27;45370;-79
2022/05/13 13:40:15;;;;;;;;;2.33;1.00;;;;;;;;5075345;27;45846;-79
2022/05/13 13:42:40;;;;;;;;;1.00;1.00;;;;;;;;5090799;27;45474;-83
2022/05/13 13:45:13;;;;;;;;;5.00;0.00;;;;;;;;5085532;27;45444;-82
2022/05/13 13:47:41;;;;;;;;;1.67;1.00;;;;;;;;5096299;27;45381;-81
2022/05/13 13:50:07;;;;;;;;;1.00;1.00;;;;;;;;5096930;27;45368;-79
2022/05/13 13:52:34;;;;;;;;;2.00;2.00;;;;;;;;5097492;27;46285;-80
2022/05/13 13:55:01;;;;;;;;;3.00;1.00;;;;;;;;5090964;27;45533;-78
2022/05/13 13:57:38;;;;;;;;;0.00;0.00;;;;;;;;5093166;27;45399;-81
2022/05/13 14:00:06;;;;;;;;;1.00;1.00;;;;;;;;5078246;27;45465;-79
2022/05/13 14:02:36;;;;;;;;;0.00;0.00;;;;;;;;5097752;27;47321;-80
2022/05/13 14:05:04;;;;;;;;;1.00;1.00;;;;;;;;5096412;27;45493;-81
2022/05/13 14:07:30;;;;;;;;;0.33;0.33;;;;;;;;5085867;27;45369;-81
2022/05/13 14:09:57;;;;;;;;;5.00;1.67;;;;;;;;5077394;28;45597;-80
2022/05/13 14:12:23;;;;;;;;;0.67;0.33;;;;;;;;5077665;27;45629;-81
2022/05/13 14:14:50;;;;;;;;;1.00;1.00;;;;;;;;5077325;27;45536;-81
2022/05/13 14:17:18;;;;;;;;;1.67;1.67;;;;;;;;5077506;27;45430;-80
2022/05/13 14:19:48;;;;;;;;;5.00;5.00;;;;;;;;5077114;27;45923;-82
2022/05/13 14:22:13;;;;;;;;;1.00;1.00;;;;;;;;5076944;28;46253;-80
2022/05/13 14:24:40;;;;;;;;;2.00;1.00;;;;;;;;5077181;28;45353;-82
2022/05/13 14:27:19;;;;;;;;;3.33;2.00;;;;;;;;5077725;27;45368;-81
2022/05/13 14:29:44;;;;;;;;;1.33;1.33;;;;;;;;5077438;28;45490;-80
2022/05/13 14:32:11;;;;;;;;;2.00;0.67;;;;;;;;5093444;27;45504;-83
2022/05/13 14:34:38;;;;;;;;;2.00;1.00;;;;;;;;5097843;27;45501;-79
2022/05/13 14:37:05;;;;;;;;;1.00;1.00;;;;;;;;5095362;27;45419;-81
2022/05/13 14:39:49;;;;;;;;;1.67;1.00;;;;;;;;5097941;27;45367;-80
2022/05/13 14:42:35;;;;;;;;;1.67;0.00;;;;;;;;5097713;27;46648;-82
2022/05/13 14:45:14;;;;;;;;;0.00;0.00;;;;;;;;5087661;27;45554;-79
2022/05/13 14:47:40;;;;;;;;;5.00;1.00;;;;;;;;5078326;27;45473;-81
2022/05/13 14:50:12;;;;;;;;;1.33;1.00;;;;;;;;5077172;28;45419;-80
2022/05/13 14:52:43;;;;;;;;;3.67;3.67;;;;;;;;5080110;27;46223;-81
2022/05/13 14:55:23;;;;;;;;;1.00;1.00;;;;;;;;5076799;27;45430;-80
2022/05/13 14:57:49;;;;;;;;;2.00;1.00;;;;;;;;5077682;27;45360;-81
2022/05/13 15:00:18;;;;;;;;;13.33;12.67;;;;;;;;5076905;27;45493;-82
2022/05/13 15:02:55;;;;;;;;;1.00;1.00;;;;;;;;5079760;27;45359;-79
2022/05/13 15:05:28;;;;;;;;;1.67;1.67;;;;;;;;5097364;27;45429;-83
2022/05/13 15:07:56;;;;;;;;;3.00;2.00;;;;;;;;5096885;27;45454;-81
2022/05/13 15:10:24;;;;;;;;;2.00;1.00;;;;;;;;5096623;27;45409;-80
2022/05/13 15:12:49;;;;;;;;;1.00;1.00;;;;;;;;5094100;27;46457;-80
2022/05/13 15:15:16;;;;;;;;;1.00;1.00;;;;;;;;5080062;27;45514;-75
2022/05/13 15:18:01;;;;;;;;;1.00;1.00;;;;;;;;5077989;27;45458;-80